Time;durP1;ratioP1;P1;durP2;ratioP2;P2;SDS_P1;SDS_P2;PMS_P1;PMS_P2;Temp;Humidity;BMP_temperature;BMP_pressure;BME280_temperature;BME280_humidity;BME280_pressure;Samples;Min_cycle;Max_cycle;Signal;HPM_P1;HPM_P2
2022/02/18 00:01:40;;;;;;;39.53;5.93;;;8.20;99.90;;;;;;5019550;28;20209;-65
2022/02/18 00:04:47;;;;;;;30.97;5.73;;;8.20;99.90;;;;;;5022663;28;20196;-65
2022/02/18 00:07:53;;;;;;;34.47;5.30;;;8.20;99.90;;;;;;5025252;28;20260;-65
2022/02/18 00:10:21;;;;;;;40.93;5.73;;;8.30;99.90;;;;;;5016989;28;20682;-65
2022/02/18 00:12:50;;;;;;;43.50;6.70;;;8.30;99.90;;;;;;5016876;28;20279;-65
2022/02/18 00:15:20;;;;;;;40.80;6.00;;;8.30;99.90;;;;;;5018462;28;20213;-65
2022/02/18 00:17:49;;;;;;;45.73;5.87;;;8.30;99.90;;;;;;5036802;28;20301;-65
2022/02/18 00:20:19;;;;;;;47.80;6.77;;;8.20;99.90;;;;;;5020057;28;20284;-65
2022/02/18 00:22:47;;;;;;;36.50;6.00;;;8.30;99.90;;;;;;5022423;28;20208;-65
2022/02/18 00:25:16;;;;;;;40.27;5.73;;;8.20;99.90;;;;;;5023098;28;20217;-65
2022/02/18 00:27:44;;;;;;;38.17;5.67;;;8.20;99.90;;;;;;5030655;28;20301;-65
2022/02/18 00:30:13;;;;;;;33.03;5.33;;;8.30;99.90;;;;;;5028663;28;20646;-65
2022/02/18 00:32:42;;;;;;;39.00;5.37;;;8.30;99.90;;;;;;5037151;28;20220;-65
2022/02/18 00:35:10;;;;;;;45.17;5.87;;;8.30;99.90;;;;;;5022475;28;20201;-65
2022/02/18 00:37:40;;;;;;;33.20;5.53;;;8.20;99.90;;;;;;5021253;28;20306;-65
2022/02/18 00:40:09;;;;;;;29.87;5.33;;;8.20;99.90;;;;;;5017963;28;20229;-65
2022/02/18 00:42:38;;;;;;;40.77;5.93;;;8.20;99.90;;;;;;5030191;28;20204;-65
2022/02/18 00:45:07;;;;;;;37.80;5.70;;;8.20;99.90;;;;;;5023919;28;20282;-65
2022/02/18 00:47:37;;;;;;;34.10;5.40;;;8.30;99.90;;;;;;5028065;28;20220;-65
2022/02/18 00:50:06;;;;;;;31.40;5.10;;;8.30;99.90;;;;;;5030755;28;20252;-65
2022/02/18 00:52:34;;;;;;;38.37;5.50;;;8.30;99.90;;;;;;5022675;28;20852;-65
2022/02/18 00:55:05;;;;;;;40.17;5.57;;;8.30;99.90;;;;;;5020352;28;20703;-65
2022/02/18 00:57:34;;;;;;;47.90;6.37;;;8.30;99.90;;;;;;5021897;28;20545;-65
2022/02/18 01:00:02;;;;;;;34.63;5.90;;;8.30;99.90;;;;;;5020914;28;20255;-65
2022/02/18 01:02:31;;;;;;;39.73;5.60;;;8.30;99.90;;;;;;5020365;28;20268;-65
2022/02/18 01:04:59;;;;;;;37.93;6.43;;;8.20;99.90;;;;;;5018502;28;20248;-65
2022/02/18 01:07:27;;;;;;;38.07;5.43;;;8.20;99.90;;;;;;5022864;28;20279;-65
2022/02/18 01:09:56;;;;;;;36.07;5.67;;;8.20;99.90;;;;;;5020607;28;20290;-64
2022/02/18 01:12:26;;;;;;;35.03;5.77;;;8.20;99.90;;;;;;5022780;28;20225;-65
2022/02/18 01:14:54;;;;;;;33.90;5.73;;;8.20;99.90;;;;;;5022299;28;20263;-64
2022/02/18 01:17:22;;;;;;;36.60;5.87;;;8.20;99.90;;;;;;5021613;28;20213;-65
2022/02/18 01:19:51;;;;;;;44.50;5.53;;;8.20;99.90;;;;;;5022244;28;20225;-65
2022/02/18 01:22:19;;;;;;;39.40;6.00;;;8.30;99.90;;;;;;5021087;28;20205;-66
2022/02/18 01:24:47;;;;;;;41.50;6.03;;;8.30;99.90;;;;;;5022904;28;20638;-66
2022/02/18 01:27:16;;;;;;;32.10;5.30;;;8.20;99.90;;;;;;5019668;28;20194;-66
2022/02/18 01:29:45;;;;;;;30.13;5.70;;;8.20;99.90;;;;;;5024183;28;20272;-66
2022/02/18 01:32:15;;;;;;;45.13;7.00;;;8.20;99.90;;;;;;5021567;28;20675;-66
2022/02/18 01:34:43;;;;;;;39.27;6.57;;;8.20;99.90;;;;;;5022518;28;20232;-66
2022/02/18 01:37:11;;;;;;;28.83;5.53;;;8.20;99.90;;;;;;5029831;28;20366;-68
2022/02/18 01:39:40;;;;;;;36.43;6.07;;;8.20;99.90;;;;;;5019878;28;20312;-69
2022/02/18 01:42:09;;;;;;;40.57;6.43;;;8.20;99.90;;;;;;5017249;28;20339;-69
2022/02/18 01:44:39;;;;;;;32.27;5.30;;;8.20;99.90;;;;;;5021385;28;20721;-69
2022/02/18 01:47:15;;;;;;;45.67;6.90;;;8.20;99.90;;;;;;5018277;28;20294;-68
2022/02/18 01:49:46;;;;;;;36.67;5.87;;;8.20;99.90;;;;;;5018831;28;20196;-69
2022/02/18 01:52:16;;;;;;;29.23;5.27;;;8.10;99.90;;;;;;5019486;28;20275;-69
2022/02/18 01:54:45;;;;;;;39.90;6.20;;;8.10;99.90;;;;;;5019886;28;20259;-69
2022/02/18 01:57:14;;;;;;;34.63;5.03;;;8.10;99.90;;;;;;5017919;28;20205;-69
2022/02/18 01:59:43;;;;;;;41.27;5.63;;;8.10;99.90;;;;;;5035050;28;20663;-69
2022/02/18 02:02:13;;;;;;;32.10;5.80;;;8.20;99.90;;;;;;5028349;28;20744;-68
2022/02/18 02:04:45;;;;;;;35.93;5.53;;;8.10;99.90;;;;;;5017128;28;20214;-69
2022/02/18 02:07:14;;;;;;;37.10;6.20;;;8.10;99.90;;;;;;5017454;28;20237;-69
2022/02/18 02:09:42;;;;;;;36.27;5.40;;;8.10;99.90;;;;;;5019877;28;20233;-69
2022/02/18 02:12:11;;;;;;;31.57;4.50;;;8.10;99.90;;;;;;5018157;28;20204;-69
2022/02/18 02:14:39;;;;;;;36.97;5.77;;;8.10;99.90;;;;;;5026657;28;21089;-69
2022/02/18 02:17:07;;;;;;;30.33;5.03;;;8.10;99.90;;;;;;5017613;28;20202;-68
2022/02/18 02:19:38;;;;;;;33.03;5.57;;;8.00;99.90;;;;;;5016529;28;20699;-69
2022/02/18 02:22:06;;;;;;;33.47;4.90;;;8.00;99.90;;;;;;5026611;28;20251;-69
2022/02/18 02:24:36;;;;;;;28.33;5.53;;;8.10;99.90;;;;;;5016841;28;20205;-68
2022/02/18 02:27:05;;;;;;;29.50;5.17;;;8.10;99.90;;;;;;5030986;28;20686;-69
2022/02/18 02:29:33;;;;;;;43.30;5.77;;;8.10;99.90;;;;;;5025116;28;20197;-67
2022/02/18 02:32:02;;;;;;;26.30;4.90;;;8.10;99.90;;;;;;5018526;28;20291;-68
2022/02/18 02:34:33;;;;;;;25.83;4.97;;;8.00;99.90;;;;;;5017313;28;20186;-69
2022/02/18 02:37:02;;;;;;;33.27;4.97;;;8.10;99.90;;;;;;5022613;28;20671;-68
2022/02/18 02:39:33;;;;;;;31.17;5.57;;;8.10;99.90;;;;;;5018048;28;20228;-67
2022/02/18 02:42:04;;;;;;;25.37;5.10;;;8.10;99.90;;;;;;5018070;28;20190;-69
2022/02/18 02:44:33;;;;;;;30.37;4.73;;;8.10;99.90;;;;;;5021448;28;20209;-69
2022/02/18 02:47:02;;;;;;;27.37;4.43;;;8.10;99.90;;;;;;5016279;28;20284;-68
2022/02/18 02:49:31;;;;;;;22.00;4.37;;;8.10;99.90;;;;;;5017142;28;20288;-67
2022/02/18 02:52:00;;;;;;;28.23;5.07;;;8.10;99.90;;;;;;5017161;28;20282;-68
2022/02/18 02:54:28;;;;;;;28.80;4.67;;;8.10;99.90;;;;;;5016159;28;20273;-69
2022/02/18 02:56:57;;;;;;;24.53;4.67;;;8.20;99.90;;;;;;5019062;28;20660;-69
2022/02/18 02:59:28;;;;;;;30.40;5.20;;;8.20;99.90;;;;;;5018586;28;20237;-69
2022/02/18 03:01:56;;;;;;;28.27;4.60;;;8.20;99.90;;;;;;5017917;28;20205;-68
2022/02/18 03:04:25;;;;;;;24.90;4.40;;;8.20;99.90;;;;;;5020008;28;20252;-69
2022/02/18 03:06:53;;;;;;;36.63;5.73;;;8.20;99.90;;;;;;5020411;28;20312;-69
2022/02/18 03:09:42;;;;;;;32.07;5.43;;;8.20;99.90;;;;;;5022918;28;20200;-68
2022/02/18 03:12:10;;;;;;;29.03;4.80;;;8.20;99.90;;;;;;5015378;28;20205;-69
2022/02/18 03:14:41;;;;;;;26.00;4.63;;;8.20;99.90;;;;;;5024511;28;20213;-69
2022/02/18 03:17:09;;;;;;;23.60;5.03;;;8.20;99.90;;;;;;5018106;28;20225;-69
2022/02/18 03:19:38;;;;;;;30.70;5.37;;;8.20;99.90;;;;;;5030433;28;20355;-69
2022/02/18 03:22:07;;;;;;;26.33;4.50;;;8.20;99.90;;;;;;5027435;28;20247;-68
2022/02/18 03:24:35;;;;;;;33.03;5.47;;;8.20;99.90;;;;;;5023767;28;20284;-68
2022/02/18 03:27:04;;;;;;;21.90;4.73;;;8.20;99.90;;;;;;5015029;28;20682;-68
2022/02/18 03:29:33;;;;;;;26.53;4.47;;;8.20;99.90;;;;;;5017438;28;20202;-69
2022/02/18 03:32:03;;;;;;;32.50;4.60;;;8.20;99.90;;;;;;5030492;28;20624;-69
2022/02/18 03:34:34;;;;;;;21.33;4.10;;;8.20;99.90;;;;;;5021880;28;20638;-69
2022/02/18 03:37:03;;;;;;;26.93;5.00;;;8.20;99.90;;;;;;5025576;28;20193;-68
2022/02/18 03:39:32;;;;;;;29.43;4.87;;;8.20;99.90;;;;;;5017239;28;20706;-69
2022/02/18 03:42:01;;;;;;;29.77;4.43;;;8.20;99.90;;;;;;5019634;28;20310;-69
2022/02/18 03:44:29;;;;;;;25.17;4.77;;;8.10;99.90;;;;;;5018872;28;20303;-69
2022/02/18 03:46:58;;;;;;;18.70;4.07;;;8.10;99.90;;;;;;5020768;28;20328;-67
2022/02/18 03:49:28;;;;;;;23.77;4.17;;;8.20;99.90;;;;;;5019651;28;20293;-68
2022/02/18 03:51:56;;;;;;;26.73;4.30;;;8.20;99.90;;;;;;5018949;28;20297;-69
2022/02/18 03:54:26;;;;;;;16.33;4.13;;;8.20;99.90;;;;;;5022848;28;20268;-69
2022/02/18 03:56:55;;;;;;;28.40;5.57;;;8.20;99.90;;;;;;5018944;28;20206;-68
2022/02/18 03:59:23;;;;;;;31.33;6.33;;;8.20;99.90;;;;;;5018716;28;20267;-69
2022/02/18 04:01:52;;;;;;;28.30;6.97;;;8.20;99.90;;;;;;5019220;28;20670;-68
2022/02/18 04:04:20;;;;;;;36.83;9.00;;;8.20;99.90;;;;;;5017188;28;20251;-69
2022/02/18 04:06:50;;;;;;;29.90;8.60;;;8.20;99.90;;;;;;5016607;28;20300;-69
2022/02/18 04:09:18;;;;;;;29.23;9.63;;;8.20;99.90;;;;;;5018518;28;20292;-69
2022/02/18 04:11:47;;;;;;;37.57;10.80;;;8.30;99.90;;;;;;5018842;28;20201;-69
2022/02/18 04:14:15;;;;;;;44.17;9.30;;;8.30;99.90;;;;;;5016858;28;20209;-69
2022/02/18 04:16:44;;;;;;;37.07;9.53;;;8.40;99.90;;;;;;5016844;28;20604;-69
2022/02/18 04:19:12;;;;;;;35.23;9.20;;;8.50;99.90;;;;;;5019129;28;20850;-69
2022/02/18 04:21:43;;;;;;;30.83;8.60;;;8.60;99.90;;;;;;5021154;28;20284;-69
2022/02/18 04:24:13;;;;;;;35.17;8.93;;;8.70;99.90;;;;;;5026461;28;20339;-69
2022/02/18 04:26:42;;;;;;;31.97;8.73;;;8.80;99.90;;;;;;5025577;28;20276;-69
2022/02/18 04:29:11;;;;;;;31.80;8.47;;;8.80;99.90;;;;;;5018328;28;20194;-69
2022/02/18 04:31:39;;;;;;;26.53;7.97;;;8.80;99.90;;;;;;5023331;28;20205;-69
2022/02/18 04:34:08;;;;;;;38.20;7.73;;;8.90;99.90;;;;;;5026388;28;20277;-69
2022/02/18 04:36:36;;;;;;;31.83;7.43;;;8.90;99.90;;;;;;5022417;28;20217;-68
2022/02/18 04:39:04;;;;;;;31.33;7.63;;;9.00;99.90;;;;;;5020353;28;20204;-68
2022/02/18 04:41:37;;;;;;;30.77;8.17;;;9.00;99.90;;;;;;5019242;28;20194;-67
2022/02/18 04:44:08;;;;;;;28.37;6.13;;;9.00;99.90;;;;;;5025690;28;20208;-70
2022/02/18 04:46:37;;;;;;;25.17;5.37;;;8.90;99.90;;;;;;5025118;28;20282;-68
2022/02/18 04:49:05;;;;;;;28.77;5.23;;;8.90;99.90;;;;;;5024323;28;20208;-69
2022/02/18 04:51:33;;;;;;;34.13;5.73;;;8.80;99.90;;;;;;5024526;28;20289;-69
2022/02/18 04:54:02;;;;;;;33.43;5.03;;;8.70;99.90;;;;;;5002810;28;20217;-68
2022/02/18 04:56:30;;;;;;;32.77;5.33;;;8.60;99.90;;;;;;5016425;28;20201;-69
2022/02/18 04:59:00;;;;;;;33.53;5.03;;;8.50;99.90;;;;;;5028757;28;20654;-68
2022/02/18 05:01:29;;;;;;;25.43;4.07;;;8.50;99.90;;;;;;5015808;28;20280;-69
2022/02/18 05:03:57;;;;;;;35.63;4.80;;;8.40;99.90;;;;;;5003135;28;20785;-65
2022/02/18 05:06:29;;;;;;;19.73;4.43;;;8.30;99.90;;;;;;5029673;28;20212;-69
2022/02/18 05:08:58;;;;;;;29.37;5.47;;;8.30;99.90;;;;;;5019793;28;20206;-68
2022/02/18 05:11:26;;;;;;;24.33;4.87;;;8.30;99.90;;;;;;5017140;28;20261;-69
2022/02/18 05:13:55;;;;;;;22.40;5.07;;;8.30;99.90;;;;;;5010709;28;20208;-69
2022/02/18 05:16:25;;;;;;;23.47;5.00;;;8.30;99.90;;;;;;5021327;28;20571;-68
2022/02/18 05:18:55;;;;;;;43.53;6.50;;;8.30;99.90;;;;;;5020377;28;20667;-69
2022/02/18 05:21:24;;;;;;;38.60;6.87;;;8.30;99.90;;;;;;5019342;28;20513;-69
2022/02/18 05:23:53;;;;;;;36.57;5.87;;;8.30;99.90;;;;;;5021549;28;20685;-68
2022/02/18 05:26:21;;;;;;;42.77;6.33;;;8.30;99.90;;;;;;5022503;28;20590;-69
2022/02/18 05:28:49;;;;;;;31.30;5.50;;;8.30;99.90;;;;;;5018797;28;20875;-69
2022/02/18 05:31:18;;;;;;;31.43;5.17;;;8.30;99.90;;;;;;5019529;28;20564;-69
2022/02/18 05:33:48;;;;;;;33.33;5.60;;;8.30;99.90;;;;;;5020256;28;20205;-68
2022/02/18 05:36:16;;;;;;;38.20;5.63;;;8.40;99.90;;;;;;5024877;28;20198;-69
2022/02/18 05:38:46;;;;;;;32.70;5.67;;;8.40;99.90;;;;;;5018547;28;20206;-68
2022/02/18 05:41:16;;;;;;;27.67;5.60;;;8.40;99.90;;;;;;5022689;28;20727;-69
2022/02/18 05:43:45;;;;;;;20.97;5.13;;;8.50;99.90;;;;;;5020357;28;20288;-68
2022/02/18 05:46:13;;;;;;;29.13;4.70;;;8.50;99.90;;;;;;5017713;28;20232;-69
2022/02/18 05:48:42;;;;;;;30.87;5.20;;;8.50;99.90;;;;;;5020708;28;20224;-68
2022/02/18 05:51:11;;;;;;;31.63;5.03;;;8.50;99.90;;;;;;5030556;28;20295;-68
2022/02/18 05:53:40;;;;;;;24.67;5.70;;;8.50;99.90;;;;;;5017958;28;20276;-68
2022/02/18 05:56:08;;;;;;;30.67;5.67;;;8.50;99.90;;;;;;5018598;28;20201;-68
2022/02/18 05:58:37;;;;;;;27.27;5.20;;;8.60;99.90;;;;;;5017197;28;20225;-69
2022/02/18 06:01:05;;;;;;;25.33;4.57;;;8.60;99.90;;;;;;5027173;28;20742;-69
2022/02/18 06:03:34;;;;;;;16.30;4.57;;;8.60;99.90;;;;;;5030942;28;20216;-69
2022/02/18 06:06:02;;;;;;;14.13;4.67;;;8.70;99.90;;;;;;5022508;28;20557;-69
2022/02/18 06:08:32;;;;;;;19.90;4.60;;;8.70;99.90;;;;;;5016356;28;20722;-68
2022/02/18 06:11:01;;;;;;;24.47;4.40;;;8.70;99.90;;;;;;5016130;28;20203;-68
2022/02/18 06:13:29;;;;;;;18.67;4.43;;;8.80;99.90;;;;;;5013927;28;20686;-68
2022/02/18 06:15:58;;;;;;;16.10;4.70;;;8.80;99.90;;;;;;5021579;28;20687;-68
2022/02/18 06:18:26;;;;;;;18.47;4.80;;;8.90;99.90;;;;;;5018253;28;20210;-69
2022/02/18 06:20:54;;;;;;;22.57;4.80;;;8.90;99.90;;;;;;5009577;28;20714;-67
2022/02/18 06:23:23;;;;;;;15.27;3.87;;;8.90;99.90;;;;;;5028464;28;20193;-68
2022/02/18 06:25:53;;;;;;;11.73;4.50;;;9.00;99.90;;;;;;5015244;28;20201;-68
2022/02/18 06:28:21;;;;;;;14.33;5.23;;;9.10;99.90;;;;;;5019332;28;20210;-69
2022/02/18 06:30:50;;;;;;;16.03;4.53;;;9.10;99.90;;;;;;5018952;28;20205;-68
2022/02/18 06:33:18;;;;;;;13.17;4.30;;;9.20;99.90;;;;;;5025200;28;20193;-67
2022/02/18 06:35:47;;;;;;;9.93;3.80;;;9.30;99.90;;;;;;5013034;28;20224;-68
2022/02/18 06:38:16;;;;;;;14.40;4.63;;;9.40;99.90;;;;;;5012604;28;20205;-68
2022/02/18 06:40:48;;;;;;;9.73;3.87;;;9.40;99.90;;;;;;5012441;28;20276;-68
2022/02/18 06:43:18;;;;;;;8.07;3.47;;;9.50;99.90;;;;;;5015305;28;20197;-69
2022/02/18 06:45:46;;;;;;;11.33;3.77;;;9.60;99.90;;;;;;5017919;28;20197;-69
2022/02/18 06:48:17;;;;;;;15.00;3.80;;;9.70;99.90;;;;;;5015474;28;20752;-68
2022/02/18 06:50:45;;;;;;;10.03;3.60;;;9.70;99.90;;;;;;5015253;28;20232;-69
2022/02/18 06:53:13;;;;;;;9.90;3.63;;;9.80;99.90;;;;;;5017271;28;20698;-67
2022/02/18 06:55:42;;;;;;;9.87;3.20;;;9.90;99.90;;;;;;5024051;28;20205;-69
2022/02/18 06:58:11;;;;;;;11.97;3.60;;;9.90;99.90;;;;;;5016477;28;20558;-69
2022/02/18 07:00:41;;;;;;;11.20;3.80;;;10.00;99.90;;;;;;5018381;28;20279;-69
2022/02/18 07:03:13;;;;;;;8.17;3.83;;;10.10;99.90;;;;;;5026208;28;20221;-68
2022/02/18 07:05:41;;;;;;;4.23;2.90;;;10.20;99.90;;;;;;5025994;28;20359;-69
2022/02/18 07:08:10;;;;;;;6.90;3.00;;;10.30;99.90;;;;;;5024087;28;20260;-69
2022/02/18 07:10:39;;;;;;;6.80;3.30;;;10.30;99.90;;;;;;5015774;28;20260;-69
2022/02/18 07:13:07;;;;;;;6.37;3.13;;;10.30;99.90;;;;;;5025529;28;20208;-70
2022/02/18 07:15:37;;;;;;;7.57;3.17;;;10.40;99.90;;;;;;5028445;28;20208;-69
2022/02/18 07:18:07;;;;;;;4.43;3.10;;;10.40;99.90;;;;;;5022760;28;20256;-70
2022/02/18 07:20:36;;;;;;;12.27;3.40;;;10.50;99.90;;;;;;5012074;28;20215;-70
2022/02/18 07:23:07;;;;;;;7.67;3.30;;;10.50;99.90;;;;;;5034884;28;20198;-69
2022/02/18 07:25:36;;;;;;;4.60;3.23;;;10.60;99.90;;;;;;5021332;28;20197;-69
2022/02/18 07:28:05;;;;;;;9.67;2.90;;;10.60;99.90;;;;;;5017287;28;20225;-70
2022/02/18 07:30:33;;;;;;;7.47;3.47;;;10.60;99.90;;;;;;5035177;28;20223;-70
2022/02/18 07:33:01;;;;;;;7.63;3.30;;;10.60;99.90;;;;;;5018801;28;20193;-69
2022/02/18 07:35:33;;;;;;;5.73;2.90;;;10.60;99.90;;;;;;5016834;28;20316;-69
2022/02/18 07:38:02;;;;;;;5.13;3.07;;;10.60;99.90;;;;;;5010167;28;20251;-69
2022/02/18 07:40:32;;;;;;;5.40;3.20;;;10.70;99.90;;;;;;5017240;28;20216;-70
2022/02/18 07:43:00;;;;;;;6.47;3.00;;;10.80;99.90;;;;;;5017826;28;20204;-69
2022/02/18 07:45:29;;;;;;;6.53;3.23;;;10.80;99.90;;;;;;5015478;28;20217;-69
2022/02/18 07:47:58;;;;;;;4.90;2.70;;;10.90;99.90;;;;;;5017648;28;20193;-67
2022/02/18 07:50:27;;;;;;;4.77;3.07;;;10.80;99.90;;;;;;5013027;28;20193;-70
2022/02/18 07:52:57;;;;;;;3.73;2.80;;;10.90;99.90;;;;;;5018534;28;20285;-69
2022/02/18 07:55:26;;;;;;;2.80;2.60;;;11.00;99.90;;;;;;5021458;28;20209;-69
2022/02/18 07:57:54;;;;;;;3.40;2.70;;;11.10;99.90;;;;;;5020623;28;20225;-69
2022/02/18 08:00:23;;;;;;;4.40;2.60;;;11.00;99.90;;;;;;5018661;28;20326;-67
2022/02/18 08:02:52;;;;;;;4.47;2.43;;;11.10;99.90;;;;;;5020048;28;20206;-69
2022/02/18 08:05:23;;;;;;;4.03;2.77;;;11.10;99.90;;;;;;5016783;28;20217;-68
2022/02/18 08:07:55;;;;;;;4.00;2.67;;;11.20;99.90;;;;;;5002324;28;20234;-70
2022/02/18 08:10:26;;;;;;;3.40;2.37;;;11.20;99.90;;;;;;5019166;28;20201;-69
2022/02/18 08:12:55;;;;;;;3.40;2.33;;;11.20;99.90;;;;;;5017946;28;21612;-69
2022/02/18 08:15:23;;;;;;;3.13;2.37;;;11.30;99.90;;;;;;5019952;28;20284;-70
2022/02/18 08:17:52;;;;;;;3.23;2.20;;;11.30;99.90;;;;;;5017726;28;20285;-70
2022/02/18 08:20:21;;;;;;;4.37;2.30;;;11.30;99.90;;;;;;5015007;28;20229;-69
2022/02/18 08:22:51;;;;;;;1.80;1.70;;;11.40;99.90;;;;;;5018332;28;20217;-68
2022/02/18 08:25:20;;;;;;;1.90;1.80;;;11.40;99.90;;;;;;5023728;28;20233;-68
2022/02/18 08:27:50;;;;;;;2.00;1.90;;;11.50;99.90;;;;;;5021719;28;20205;-69
2022/02/18 08:30:18;;;;;;;2.37;1.90;;;11.50;99.90;;;;;;5022557;28;20194;-69
2022/02/18 08:32:47;;;;;;;1.73;1.60;;;11.60;99.90;;;;;;5017544;28;20201;-69
2022/02/18 08:35:15;;;;;;;1.60;1.50;;;11.60;99.90;;;;;;5020301;28;20213;-69
2022/02/18 08:37:44;;;;;;;1.70;1.70;;;11.60;99.90;;;;;;5019298;28;20197;-69
2022/02/18 08:40:13;;;;;;;2.63;1.40;;;11.70;99.90;;;;;;5020637;28;20205;-70
2022/02/18 08:42:41;;;;;;;1.30;1.30;;;11.80;99.90;;;;;;5023252;28;20218;-69
2022/02/18 08:45:11;;;;;;;1.57;1.47;;;11.80;99.90;;;;;;5017919;28;20198;-69
2022/02/18 08:47:40;;;;;;;1.20;1.10;;;11.90;99.90;;;;;;5019907;28;20212;-68
2022/02/18 08:50:10;;;;;;;1.77;1.10;;;11.90;99.90;;;;;;5018512;28;20202;-69
2022/02/18 08:52:39;;;;;;;1.10;1.10;;;12.00;99.90;;;;;;5021676;28;20407;-70
2022/02/18 08:55:11;;;;;;;1.07;1.07;;;12.00;99.90;;;;;;5027851;28;20283;-68
2022/02/18 08:57:43;;;;;;;2.40;1.10;;;12.10;99.90;;;;;;5021418;28;20201;-69
2022/02/18 09:00:14;;;;;;;1.17;1.07;;;12.10;99.90;;;;;;5032372;28;20198;-69
2022/02/18 09:02:43;;;;;;;1.00;1.00;;;12.10;99.90;;;;;;5016024;28;20215;-69
2022/02/18 09:05:12;;;;;;;1.43;1.03;;;12.10;99.90;;;;;;5018127;28;20213;-68
2022/02/18 09:07:41;;;;;;;2.70;1.07;;;12.20;99.90;;;;;;5017304;28;20241;-69
2022/02/18 09:10:10;;;;;;;0.90;0.90;;;12.20;99.90;;;;;;5018388;28;20204;-70
2022/02/18 09:12:40;;;;;;;0.90;0.90;;;12.20;99.90;;;;;;5020923;28;20285;-69
2022/02/18 09:15:10;;;;;;;1.00;1.00;;;12.30;99.90;;;;;;5017117;28;20212;-69
2022/02/18 09:17:40;;;;;;;1.33;1.23;;;12.30;99.90;;;;;;5015981;28;20205;-69
2022/02/18 09:20:10;;;;;;;3.10;1.27;;;12.30;99.90;;;;;;5018820;28;20863;-69
2022/02/18 09:22:38;;;;;;;1.03;1.03;;;12.40;99.90;;;;;;5012700;28;20305;-69
2022/02/18 09:25:08;;;;;;;1.80;1.00;;;12.40;99.90;;;;;;5023536;28;20201;-68
2022/02/18 09:27:37;;;;;;;1.00;1.00;;;12.40;99.90;;;;;;5019327;28;20189;-69
2022/02/18 09:30:10;;;;;;;1.10;1.10;;;12.50;99.90;;;;;;5020500;28;20205;-69
2022/02/18 09:32:40;;;;;;;1.33;0.93;;;12.50;99.90;;;;;;5018933;28;20731;-69
2022/02/18 09:35:11;;;;;;;1.00;0.90;;;12.60;99.90;;;;;;5018732;28;20243;-70
2022/02/18 09:37:41;;;;;;;1.90;0.90;;;12.60;99.90;;;;;;5017320;28;20201;-69
2022/02/18 09:40:12;;;;;;;0.87;0.80;;;12.70;99.90;;;;;;5016393;28;20832;-69
2022/02/18 09:42:43;;;;;;;0.90;0.90;;;12.70;99.90;;;;;;5018693;28;20217;-69
2022/02/18 09:45:12;;;;;;;2.80;1.00;;;12.70;99.90;;;;;;5016639;28;20225;-70
2022/02/18 09:47:44;;;;;;;1.00;1.00;;;12.60;99.90;;;;;;5018017;28;20201;-69
2022/02/18 09:50:13;;;;;;;1.70;1.13;;;12.60;99.90;;;;;;5015814;28;20233;-69
2022/02/18 09:53:02;;;;;;;1.00;1.00;;;12.50;99.90;;;;;;5018570;28;20749;-68
2022/02/18 09:55:33;;;;;;;0.93;0.93;;;12.50;99.90;;;;;;5027745;28;20189;-70
2022/02/18 09:58:02;;;;;;;0.80;0.80;;;12.50;99.90;;;;;;5030220;28;20201;-68
2022/02/18 10:00:31;;;;;;;1.13;1.10;;;12.40;99.90;;;;;;5019044;28;20297;-69
2022/02/18 10:03:01;;;;;;;0.90;0.90;;;12.40;99.90;;;;;;5015289;28;20603;-69
2022/02/18 10:05:29;;;;;;;0.93;0.90;;;12.40;99.90;;;;;;5018806;28;20651;-70
2022/02/18 10:08:09;;;;;;;2.27;0.90;;;12.50;99.90;;;;;;5025689;28;20260;-67
2022/02/18 10:10:40;;;;;;;1.60;0.93;;;12.50;99.90;;;;;;5025895;28;20190;-70
2022/02/18 10:13:29;;;;;;;0.93;0.93;;;12.50;99.90;;;;;;5014996;28;20212;-68
2022/02/18 10:15:58;;;;;;;0.80;0.80;;;12.50;99.90;;;;;;5019088;28;20259;-68
2022/02/18 10:18:28;;;;;;;2.10;0.90;;;12.50;99.90;;;;;;5016713;28;20202;-69
2022/02/18 10:20:56;;;;;;;0.97;0.97;;;12.50;99.90;;;;;;5013261;28;20300;-69
2022/02/18 10:23:30;;;;;;;0.97;0.97;;;12.60;99.90;;;;;;5030808;28;20511;-69
2022/02/18 10:25:58;;;;;;;0.90;0.90;;;12.70;99.90;;;;;;5018755;28;20320;-68
2022/02/18 10:28:27;;;;;;;0.80;0.80;;;12.80;99.90;;;;;;5017359;28;20221;-69
2022/02/18 10:31:02;;;;;;;2.77;0.87;;;12.90;99.90;;;;;;5008799;28;20632;-68
2022/02/18 10:33:35;;;;;;;2.87;1.10;;;12.90;99.90;;;;;;5015993;28;20738;-69
2022/02/18 10:36:06;;;;;;;0.80;0.80;;;12.90;99.90;;;;;;5020585;28;20195;-69
2022/02/18 10:38:36;;;;;;;0.80;0.80;;;12.90;99.90;;;;;;5021810;28;20805;-71
2022/02/18 10:41:19;;;;;;;3.40;0.90;;;12.90;99.90;;;;;;5017101;28;20194;-68
2022/02/18 10:43:49;;;;;;;1.40;1.00;;;12.90;99.90;;;;;;5017162;28;20217;-70
2022/02/18 10:46:20;;;;;;;0.80;0.80;;;12.90;99.90;;;;;;5011136;28;20619;-70
2022/02/18 10:48:53;;;;;;;0.93;0.80;;;12.90;99.90;;;;;;5016138;28;20925;-70
2022/02/18 10:51:30;;;;;;;1.30;1.00;;;12.90;99.90;;;;;;5018019;28;20203;-69
2022/02/18 10:54:10;;;;;;;0.80;0.80;;;12.90;99.90;;;;;;5017430;28;20213;-69
2022/02/18 10:56:38;;;;;;;0.90;0.90;;;12.90;99.90;;;;;;5017564;28;20276;-69
2022/02/18 10:59:08;;;;;;;0.80;0.80;;;12.90;99.90;;;;;;5015337;28;20255;-68
2022/02/18 11:01:44;;;;;;;1.00;1.00;;;12.90;99.90;;;;;;5016728;28;20902;-69
2022/02/18 11:04:15;;;;;;;1.00;1.00;;;12.90;99.90;;;;;;5013864;28;20213;-66
2022/02/18 11:06:44;;;;;;;0.73;0.73;;;12.80;99.90;;;;;;5015647;28;20222;-67
2022/02/18 11:09:14;;;;;;;1.10;1.00;;;12.80;99.90;;;;;;5013201;28;20988;-66
2022/02/18 11:11:45;;;;;;;3.13;0.80;;;12.70;99.90;;;;;;5015407;28;20201;-67
2022/02/18 11:14:15;;;;;;;1.20;1.13;;;12.70;99.90;;;;;;5024591;28;20256;-66
2022/02/18 11:16:46;;;;;;;0.90;0.90;;;12.60;99.90;;;;;;5018438;28;20742;-67
2022/02/18 11:19:17;;;;;;;3.33;0.80;;;12.60;99.90;;;;;;5024911;28;20202;-66
2022/02/18 11:22:08;;;;;;;1.80;1.00;;;12.50;99.90;;;;;;5015567;28;20741;-66
2022/02/18 11:24:39;;;;;;;1.90;0.80;;;12.60;99.90;;;;;;5027146;28;20209;-67
2022/02/18 11:27:11;;;;;;;0.80;0.80;;;12.60;99.90;;;;;;5017155;28;20201;-67
2022/02/18 11:29:39;;;;;;;1.17;1.00;;;12.60;99.90;;;;;;5018636;28;20775;-67
2022/02/18 11:32:18;;;;;;;0.90;0.90;;;12.60;99.90;;;;;;5017933;28;20205;-66
2022/02/18 11:35:03;;;;;;;0.80;0.80;;;12.70;99.90;;;;;;5024009;28;20185;-66
2022/02/18 11:38:02;;;;;;;0.97;0.80;;;12.70;99.90;;;;;;5013443;28;20198;-67
2022/02/18 11:40:50;;;;;;;1.10;1.10;;;12.60;99.90;;;;;;5018466;28;20194;-67
2022/02/18 11:43:25;;;;;;;0.90;0.90;;;12.60;99.90;;;;;;5015323;28;20213;-67
2022/02/18 11:45:59;;;;;;;0.80;0.80;;;12.70;99.90;;;;;;5014216;28;20244;-68
2022/02/18 11:48:36;;;;;;;0.97;0.90;;;12.60;99.90;;;;;;5015824;28;20202;-67
2022/02/18 11:51:11;;;;;;;3.43;1.40;;;12.50;99.90;;;;;;5027052;28;20212;-67
2022/02/18 11:53:41;;;;;;;4.83;1.53;;;12.20;99.90;;;;;;5007411;28;20280;-67
2022/02/18 11:56:11;;;;;;;6.13;1.60;;;11.50;99.90;;;;;;5006387;28;21392;-68
2022/02/18 11:58:54;;;;;;;4.23;1.70;;;10.90;99.90;;;;;;5010523;28;20260;-66
2022/02/18 12:02:10;;;;;;;2.93;1.60;;;10.60;99.90;;;;;;5010690;28;20770;-67
2022/02/18 12:04:39;;;;;;;6.30;1.70;;;10.30;99.90;;;;;;4978574;28;20241;-67
2022/02/18 12:07:31;;;;;;;7.00;1.60;;;10.30;99.90;;;;;;5009812;28;20235;-69
2022/02/18 12:10:11;;;;;;;6.30;2.13;;;10.30;99.90;;;;;;5010230;28;20201;-67
2022/02/18 12:12:41;;;;;;;6.57;1.97;;;10.30;99.90;;;;;;5027886;28;20201;-68
2022/02/18 12:15:25;;;;;;;6.80;2.40;;;10.30;99.90;;;;;;5009738;28;20267;-67
2022/02/18 12:18:03;;;;;;;6.63;1.97;;;10.30;99.90;;;;;;5016797;28;20200;-67
2022/02/18 12:20:34;;;;;;;9.03;2.37;;;10.30;99.90;;;;;;5014500;28;20205;-67
2022/02/18 12:23:25;;;;;;;5.73;2.00;;;10.20;99.90;;;;;;5012498;28;20803;-68
2022/02/18 12:26:26;;;;;;;5.70;2.00;;;10.10;99.90;;;;;;5013263;28;20264;-67
2022/02/18 12:29:29;;;;;;;8.87;2.10;;;10.10;99.90;;;;;;5016123;28;20261;-69
2022/02/18 12:32:01;;;;;;;6.77;2.10;;;10.00;99.90;;;;;;5013327;28;20207;-68
2022/02/18 12:34:31;;;;;;;11.57;2.33;;;10.00;99.90;;;;;;5012765;28;20190;-66
2022/02/18 12:36:59;;;;;;;14.20;3.17;;;10.00;99.90;;;;;;5017090;28;20281;-68
2022/02/18 12:39:40;;;;;;;9.60;2.50;;;10.00;99.90;;;;;;5011755;28;20831;-68
2022/02/18 12:42:16;;;;;;;9.80;2.17;;;10.10;99.90;;;;;;5017698;28;20889;-66
2022/02/18 12:44:48;;;;;;;7.80;2.53;;;10.10;99.90;;;;;;5015841;28;20296;-66
2022/02/18 12:47:20;;;;;;;8.20;2.43;;;10.10;99.90;;;;;;5030754;28;20262;-66
2022/02/18 12:49:53;;;;;;;10.73;2.57;;;10.10;99.90;;;;;;5011511;28;20203;-66
2022/02/18 12:52:26;;;;;;;9.43;2.63;;;10.10;99.90;;;;;;5017760;28;20571;-67
2022/02/18 12:54:57;;;;;;;9.67;2.80;;;10.20;99.90;;;;;;5015279;28;20198;-67
2022/02/18 12:57:28;;;;;;;9.17;2.33;;;10.20;99.90;;;;;;5016011;28;20198;-66
2022/02/18 12:59:57;;;;;;;8.63;2.20;;;10.30;99.90;;;;;;5013638;28;20205;-66
2022/02/18 13:02:39;;;;;;;21.43;2.73;;;10.30;99.90;;;;;;5016822;28;20204;-66
2022/02/18 13:05:10;;;;;;;10.40;2.67;;;10.30;99.90;;;;;;5017796;28;20233;-71